sensor_id;sensor_type;location;lat;lon;timestamp;P1;durP1;ratioP1;P2;durP2;ratioP2
7707;SDS011;3896;48.758;8.888;2023-01-13T00:00:41;3.53;;;0.63;;
7707;SDS011;3896;48.758;8.888;2023-01-13T00:03:06;2.30;;;0.67;;
7707;SDS011;3896;48.758;8.888;2023-01-13T00:05:32;0.53;;;0.53;;
7707;SDS011;3896;48.758;8.888;2023-01-13T00:07:58;0.97;;;0.67;;
7707;SDS011;3896;48.758;8.888;2023-01-13T00:10:23;0.97;;;0.60;;
7707;SDS011;3896;48.758;8.888;2023-01-13T00:12:49;2.93;;;0.70;;
7707;SDS011;3896;48.758;8.888;2023-01-13T00:15:15;2.30;;;0.70;;
7707;SDS011;3896;48.758;8.888;2023-01-13T00:17:40;0.80;;;0.50;;
7707;SDS011;3896;48.758;8.888;2023-01-13T00:20:06;0.80;;;0.70;;
7707;SDS011;3896;48.758;8.888;2023-01-13T00:22:34;2.13;;;0.60;;
7707;SDS011;3896;48.758;8.888;2023-01-13T00:25:00;1.20;;;0.50;;
7707;SDS011;3896;48.758;8.888;2023-01-13T00:27:26;0.77;;;0.50;;
7707;SDS011;3896;48.758;8.888;2023-01-13T00:29:52;0.60;;;0.60;;
7707;SDS011;3896;48.758;8.888;2023-01-13T00:32:18;0.83;;;0.77;;
7707;SDS011;3896;48.758;8.888;2023-01-13T00:34:43;1.27;;;0.63;;
7707;SDS011;3896;48.758;8.888;2023-01-13T00:37:09;0.77;;;0.53;;
7707;SDS011;3896;48.758;8.888;2023-01-13T00:39:37;1.83;;;0.50;;
7707;SDS011;3896;48.758;8.888;2023-01-13T00:42:02;1.13;;;0.83;;
7707;SDS011;3896;48.758;8.888;2023-01-13T00:44:46;1.13;;;0.60;;
7707;SDS011;3896;48.758;8.888;2023-01-13T00:47:12;1.00;;;0.60;;
7707;SDS011;3896;48.758;8.888;2023-01-13T00:49:37;1.60;;;0.50;;
7707;SDS011;3896;48.758;8.888;2023-01-13T00:52:03;1.90;;;0.97;;
7707;SDS011;3896;48.758;8.888;2023-01-13T00:54:29;2.43;;;0.80;;
7707;SDS011;3896;48.758;8.888;2023-01-13T00:56:54;1.43;;;0.60;;
7707;SDS011;3896;48.758;8.888;2023-01-13T00:59:20;0.90;;;0.50;;
7707;SDS011;3896;48.758;8.888;2023-01-13T01:01:45;1.90;;;0.70;;
7707;SDS011;3896;48.758;8.888;2023-01-13T01:04:11;0.97;;;0.60;;
7707;SDS011;3896;48.758;8.888;2023-01-13T01:06:36;0.77;;;0.70;;
7707;SDS011;3896;48.758;8.888;2023-01-13T01:09:02;0.87;;;0.47;;
7707;SDS011;3896;48.758;8.888;2023-01-13T01:11:29;0.77;;;0.70;;
7707;SDS011;3896;48.758;8.888;2023-01-13T01:13:59;1.60;;;0.70;;
7707;SDS011;3896;48.758;8.888;2023-01-13T01:16:27;1.63;;;0.70;;
7707;SDS011;3896;48.758;8.888;2023-01-13T01:18:54;1.10;;;0.57;;
7707;SDS011;3896;48.758;8.888;2023-01-13T01:21:21;1.43;;;0.70;;
7707;SDS011;3896;48.758;8.888;2023-01-13T01:23:47;0.40;;;0.40;;
7707;SDS011;3896;48.758;8.888;2023-01-13T01:26:14;2.83;;;0.57;;
7707;SDS011;3896;48.758;8.888;2023-01-13T01:28:42;2.20;;;0.70;;
7707;SDS011;3896;48.758;8.888;2023-01-13T01:31:09;1.03;;;0.90;;
7707;SDS011;3896;48.758;8.888;2023-01-13T01:33:39;1.43;;;0.53;;
7707;SDS011;3896;48.758;8.888;2023-01-13T01:36:08;1.73;;;0.50;;
7707;SDS011;3896;48.758;8.888;2023-01-13T01:38:36;0.30;;;0.30;;
7707;SDS011;3896;48.758;8.888;2023-01-13T01:41:02;2.43;;;0.80;;
7707;SDS011;3896;48.758;8.888;2023-01-13T01:46:41;1.20;;;0.50;;
7707;SDS011;3896;48.758;8.888;2023-01-13T01:49:29;1.70;;;0.63;;
7707;SDS011;3896;48.758;8.888;2023-01-13T01:57:03;0.70;;;0.70;;
7707;SDS011;3896;48.758;8.888;2023-01-13T01:59:30;1.60;;;0.50;;
7707;SDS011;3896;48.758;8.888;2023-01-13T02:01:57;1.47;;;0.60;;
7707;SDS011;3896;48.758;8.888;2023-01-13T02:04:24;0.50;;;0.50;;
7707;SDS011;3896;48.758;8.888;2023-01-13T02:06:57;1.03;;;0.80;;
7707;SDS011;3896;48.758;8.888;2023-01-13T02:09:23;0.63;;;0.63;;
7707;SDS011;3896;48.758;8.888;2023-01-13T02:11:50;0.70;;;0.53;;
7707;SDS011;3896;48.758;8.888;2023-01-13T02:14:34;0.70;;;0.40;;
7707;SDS011;3896;48.758;8.888;2023-01-13T02:31:27;0.50;;;0.50;;
7707;SDS011;3896;48.758;8.888;2023-01-13T02:34:29;2.77;;;0.83;;
7707;SDS011;3896;48.758;8.888;2023-01-13T02:37:04;0.57;;;0.57;;
7707;SDS011;3896;48.758;8.888;2023-01-13T02:39:47;0.77;;;0.73;;
7707;SDS011;3896;48.758;8.888;2023-01-13T02:42:22;1.80;;;0.90;;
7707;SDS011;3896;48.758;8.888;2023-01-13T02:45:18;2.57;;;0.80;;
7707;SDS011;3896;48.758;8.888;2023-01-13T02:47:52;1.60;;;0.60;;
7707;SDS011;3896;48.758;8.888;2023-01-13T02:50:23;0.90;;;0.60;;
7707;SDS011;3896;48.758;8.888;2023-01-13T02:52:56;0.50;;;0.50;;
7707;SDS011;3896;48.758;8.888;2023-01-13T02:57:53;0.57;;;0.57;;
7707;SDS011;3896;48.758;8.888;2023-01-13T03:00:22;1.60;;;0.40;;
7707;SDS011;3896;48.758;8.888;2023-01-13T03:02:48;1.80;;;1.00;;
7707;SDS011;3896;48.758;8.888;2023-01-13T03:05:14;1.20;;;0.70;;
7707;SDS011;3896;48.758;8.888;2023-01-13T03:21:55;0.53;;;0.50;;
7707;SDS011;3896;48.758;8.888;2023-01-13T03:24:41;0.97;;;0.80;;
7707;SDS011;3896;48.758;8.888;2023-01-13T03:27:13;0.70;;;0.70;;
7707;SDS011;3896;48.758;8.888;2023-01-13T03:29:48;1.07;;;0.73;;
7707;SDS011;3896;48.758;8.888;2023-01-13T03:32:29;0.37;;;0.37;;
7707;SDS011;3896;48.758;8.888;2023-01-13T03:37:46;2.20;;;0.60;;
7707;SDS011;3896;48.758;8.888;2023-01-13T03:40:17;2.47;;;0.60;;
7707;SDS011;3896;48.758;8.888;2023-01-13T03:42:52;4.63;;;0.60;;
7707;SDS011;3896;48.758;8.888;2023-01-13T03:45:41;1.43;;;0.80;;
7707;SDS011;3896;48.758;8.888;2023-01-13T03:48:13;0.50;;;0.50;;
7707;SDS011;3896;48.758;8.888;2023-01-13T03:50:45;0.87;;;0.57;;
7707;SDS011;3896;48.758;8.888;2023-01-13T03:53:14;1.57;;;0.77;;
7707;SDS011;3896;48.758;8.888;2023-01-13T03:56:00;2.77;;;0.50;;
7707;SDS011;3896;48.758;8.888;2023-01-13T03:58:32;0.97;;;0.60;;
7707;SDS011;3896;48.758;8.888;2023-01-13T04:01:04;1.77;;;0.70;;
7707;SDS011;3896;48.758;8.888;2023-01-13T04:03:39;1.07;;;0.50;;
7707;SDS011;3896;48.758;8.888;2023-01-13T04:09:44;1.40;;;0.60;;
7707;SDS011;3896;48.758;8.888;2023-01-13T04:11:48;2.63;;;0.57;;
7707;SDS011;3896;48.758;8.888;2023-01-13T04:14:19;2.90;;;0.90;;
7707;SDS011;3896;48.758;8.888;2023-01-13T04:16:47;1.47;;;0.67;;
7707;SDS011;3896;48.758;8.888;2023-01-13T04:19:13;0.77;;;0.70;;
7707;SDS011;3896;48.758;8.888;2023-01-13T04:21:39;1.03;;;0.47;;
7707;SDS011;3896;48.758;8.888;2023-01-13T04:24:04;1.27;;;0.37;;
7707;SDS011;3896;48.758;8.888;2023-01-13T04:26:30;0.40;;;0.40;;
7707;SDS011;3896;48.758;8.888;2023-01-13T04:28:56;0.60;;;0.60;;
7707;SDS011;3896;48.758;8.888;2023-01-13T04:31:21;1.07;;;0.60;;
7707;SDS011;3896;48.758;8.888;2023-01-13T04:33:47;0.60;;;0.60;;
7707;SDS011;3896;48.758;8.888;2023-01-13T04:36:12;1.40;;;0.97;;
7707;SDS011;3896;48.758;8.888;2023-01-13T04:38:39;1.97;;;0.50;;
7707;SDS011;3896;48.758;8.888;2023-01-13T04:41:05;0.53;;;0.53;;
7707;SDS011;3896;48.758;8.888;2023-01-13T04:43:30;2.00;;;0.50;;
7707;SDS011;3896;48.758;8.888;2023-01-13T04:45:56;2.53;;;0.50;;
7707;SDS011;3896;48.758;8.888;2023-01-13T04:48:21;1.17;;;0.60;;
7707;SDS011;3896;48.758;8.888;2023-01-13T04:50:47;1.77;;;0.60;;
7707;SDS011;3896;48.758;8.888;2023-01-13T04:53:13;0.50;;;0.50;;
7707;SDS011;3896;48.758;8.888;2023-01-13T04:55:38;2.63;;;0.60;;
7707;SDS011;3896;48.758;8.888;2023-01-13T04:58:04;1.83;;;0.60;;
7707;SDS011;3896;48.758;8.888;2023-01-13T05:00:31;1.23;;;0.70;;
7707;SDS011;3896;48.758;8.888;2023-01-13T05:02:56;1.27;;;0.33;;
7707;SDS011;3896;48.758;8.888;2023-01-13T05:05:23;0.37;;;0.37;;
7707;SDS011;3896;48.758;8.888;2023-01-13T05:07:50;0.53;;;0.30;;
7707;SDS011;3896;48.758;8.888;2023-01-13T05:10:15;4.33;;;0.60;;
7707;SDS011;3896;48.758;8.888;2023-01-13T05:12:41;1.20;;;0.93;;
7707;SDS011;3896;48.758;8.888;2023-01-13T05:15:25;1.60;;;0.50;;
7707;SDS011;3896;48.758;8.888;2023-01-13T05:18:09;0.90;;;0.50;;
7707;SDS011;3896;48.758;8.888;2023-01-13T05:20:35;0.80;;;0.53;;
7707;SDS011;3896;48.758;8.888;2023-01-13T05:23:00;0.40;;;0.40;;
7707;SDS011;3896;48.758;8.888;2023-01-13T05:25:45;0.43;;;0.40;;
7707;SDS011;3896;48.758;8.888;2023-01-13T05:28:12;2.90;;;0.80;;
7707;SDS011;3896;48.758;8.888;2023-01-13T05:30:38;0.47;;;0.47;;
7707;SDS011;3896;48.758;8.888;2023-01-13T05:33:10;1.07;;;0.60;;
7707;SDS011;3896;48.758;8.888;2023-01-13T05:35:40;0.40;;;0.30;;
7707;SDS011;3896;48.758;8.888;2023-01-13T05:38:06;1.40;;;0.60;;
7707;SDS011;3896;48.758;8.888;2023-01-13T05:40:31;0.37;;;0.37;;
7707;SDS011;3896;48.758;8.888;2023-01-13T05:43:16;1.10;;;0.30;;
7707;SDS011;3896;48.758;8.888;2023-01-13T05:45:57;2.13;;;0.40;;
7707;SDS011;3896;48.758;8.888;2023-01-13T05:48:24;1.10;;;0.30;;
7707;SDS011;3896;48.758;8.888;2023-01-13T05:50:51;3.13;;;0.50;;
7707;SDS011;3896;48.758;8.888;2023-01-13T05:53:18;1.73;;;0.40;;
7707;SDS011;3896;48.758;8.888;2023-01-13T05:55:44;0.50;;;0.50;;
7707;SDS011;3896;48.758;8.888;2023-01-13T05:58:10;1.03;;;0.63;;
7707;SDS011;3896;48.758;8.888;2023-01-13T06:00:37;0.57;;;0.57;;
7707;SDS011;3896;48.758;8.888;2023-01-13T06:03:04;0.60;;;0.50;;
7707;SDS011;3896;48.758;8.888;2023-01-13T06:05:30;3.23;;;1.50;;
7707;SDS011;3896;48.758;8.888;2023-01-13T06:07:57;1.23;;;0.50;;
7707;SDS011;3896;48.758;8.888;2023-01-13T06:10:24;0.70;;;0.67;;
7707;SDS011;3896;48.758;8.888;2023-01-13T06:12:50;2.33;;;0.70;;
7707;SDS011;3896;48.758;8.888;2023-01-13T06:15:16;0.40;;;0.40;;
7707;SDS011;3896;48.758;8.888;2023-01-13T06:17:42;0.50;;;0.50;;
7707;SDS011;3896;48.758;8.888;2023-01-13T06:20:08;0.53;;;0.53;;
7707;SDS011;3896;48.758;8.888;2023-01-13T06:22:36;0.50;;;0.50;;
7707;SDS011;3896;48.758;8.888;2023-01-13T06:25:06;2.33;;;0.50;;
7707;SDS011;3896;48.758;8.888;2023-01-13T06:27:42;0.60;;;0.60;;
7707;SDS011;3896;48.758;8.888;2023-01-13T06:30:07;0.20;;;0.20;;
7707;SDS011;3896;48.758;8.888;2023-01-13T06:32:35;0.43;;;0.43;;
7707;SDS011;3896;48.758;8.888;2023-01-13T06:35:05;1.60;;;0.50;;
7707;SDS011;3896;48.758;8.888;2023-01-13T06:37:35;0.93;;;0.40;;
7707;SDS011;3896;48.758;8.888;2023-01-13T06:40:02;1.80;;;0.50;;
7707;SDS011;3896;48.758;8.888;2023-01-13T06:42:31;1.20;;;0.90;;
7707;SDS011;3896;48.758;8.888;2023-01-13T06:45:18;0.87;;;0.40;;
7707;SDS011;3896;48.758;8.888;2023-01-13T06:47:45;0.73;;;0.30;;
7707;SDS011;3896;48.758;8.888;2023-01-13T06:50:10;0.40;;;0.40;;
7707;SDS011;3896;48.758;8.888;2023-01-13T06:52:36;0.43;;;0.30;;
7707;SDS011;3896;48.758;8.888;2023-01-13T06:55:02;0.87;;;0.43;;
7707;SDS011;3896;48.758;8.888;2023-01-13T06:57:27;1.13;;;0.50;;
7707;SDS011;3896;48.758;8.888;2023-01-13T06:59:53;0.67;;;0.37;;
7707;SDS011;3896;48.758;8.888;2023-01-13T07:02:19;0.53;;;0.53;;
7707;SDS011;3896;48.758;8.888;2023-01-13T07:04:44;1.20;;;0.50;;
7707;SDS011;3896;48.758;8.888;2023-01-13T07:07:10;0.83;;;0.83;;
7707;SDS011;3896;48.758;8.888;2023-01-13T07:09:37;0.30;;;0.30;;
7707;SDS011;3896;48.758;8.888;2023-01-13T07:12:02;0.40;;;0.40;;
7707;SDS011;3896;48.758;8.888;2023-01-13T07:14:28;0.77;;;0.50;;
7707;SDS011;3896;48.758;8.888;2023-01-13T07:17:12;0.73;;;0.37;;
7707;SDS011;3896;48.758;8.888;2023-01-13T07:19:38;0.93;;;0.40;;
7707;SDS011;3896;48.758;8.888;2023-01-13T07:22:03;0.20;;;0.20;;
7707;SDS011;3896;48.758;8.888;2023-01-13T07:24:29;0.27;;;0.27;;
7707;SDS011;3896;48.758;8.888;2023-01-13T07:26:54;0.37;;;0.37;;
7707;SDS011;3896;48.758;8.888;2023-01-13T07:29:20;0.40;;;0.40;;
7707;SDS011;3896;48.758;8.888;2023-01-13T07:31:45;0.53;;;0.40;;
7707;SDS011;3896;48.758;8.888;2023-01-13T07:34:11;0.47;;;0.40;;
7707;SDS011;3896;48.758;8.888;2023-01-13T07:36:37;1.83;;;1.37;;
7707;SDS011;3896;48.758;8.888;2023-01-13T07:39:03;0.80;;;0.80;;
7707;SDS011;3896;48.758;8.888;2023-01-13T07:41:29;1.30;;;1.20;;
7707;SDS011;3896;48.758;8.888;2023-01-13T07:44:13;0.53;;;0.50;;
7707;SDS011;3896;48.758;8.888;2023-01-13T07:46:39;2.87;;;1.20;;
7707;SDS011;3896;48.758;8.888;2023-01-13T07:49:05;3.23;;;1.17;;
7707;SDS011;3896;48.758;8.888;2023-01-13T07:51:31;5.87;;;1.77;;
7707;SDS011;3896;48.758;8.888;2023-01-13T07:54:00;1.00;;;0.90;;
7707;SDS011;3896;48.758;8.888;2023-01-13T07:56:25;1.37;;;1.00;;
7707;SDS011;3896;48.758;8.888;2023-01-13T07:58:51;1.40;;;1.23;;
7707;SDS011;3896;48.758;8.888;2023-01-13T08:01:17;3.00;;;1.50;;
7707;SDS011;3896;48.758;8.888;2023-01-13T08:03:43;1.37;;;1.20;;
7707;SDS011;3896;48.758;8.888;2023-01-13T08:06:09;1.83;;;1.37;;
7707;SDS011;3896;48.758;8.888;2023-01-13T08:08:36;0.70;;;0.70;;
7707;SDS011;3896;48.758;8.888;2023-01-13T08:11:02;0.63;;;0.60;;
7707;SDS011;3896;48.758;8.888;2023-01-13T08:13:29;0.57;;;0.47;;
7707;SDS011;3896;48.758;8.888;2023-01-13T08:15:59;0.47;;;0.47;;
7707;SDS011;3896;48.758;8.888;2023-01-13T08:18:27;1.20;;;0.77;;
7707;SDS011;3896;48.758;8.888;2023-01-13T08:20:52;1.73;;;0.37;;
7707;SDS011;3896;48.758;8.888;2023-01-13T08:23:19;0.50;;;0.50;;
7707;SDS011;3896;48.758;8.888;2023-01-13T08:25:46;0.50;;;0.50;;
7707;SDS011;3896;48.758;8.888;2023-01-13T08:28:12;0.40;;;0.40;;
7707;SDS011;3896;48.758;8.888;2023-01-13T08:30:39;1.63;;;0.40;;
7707;SDS011;3896;48.758;8.888;2023-01-13T08:33:06;3.87;;;2.47;;
7707;SDS011;3896;48.758;8.888;2023-01-13T08:35:36;0.70;;;0.70;;
7707;SDS011;3896;48.758;8.888;2023-01-13T08:38:03;1.20;;;0.90;;
7707;SDS011;3896;48.758;8.888;2023-01-13T08:40:30;0.60;;;0.60;;
7707;SDS011;3896;48.758;8.888;2023-01-13T08:42:55;2.63;;;0.80;;
7707;SDS011;3896;48.758;8.888;2023-01-13T08:45:22;0.70;;;0.70;;
7707;SDS011;3896;48.758;8.888;2023-01-13T08:47:47;0.50;;;0.50;;
7707;SDS011;3896;48.758;8.888;2023-01-13T08:50:13;0.40;;;0.40;;
7707;SDS011;3896;48.758;8.888;2023-01-13T08:52:38;0.50;;;0.50;;
7707;SDS011;3896;48.758;8.888;2023-01-13T08:55:05;0.40;;;0.40;;
7707;SDS011;3896;48.758;8.888;2023-01-13T08:57:31;0.73;;;0.60;;
7707;SDS011;3896;48.758;8.888;2023-01-13T08:59:56;1.23;;;0.40;;
7707;SDS011;3896;48.758;8.888;2023-01-13T09:02:22;0.43;;;0.40;;
7707;SDS011;3896;48.758;8.888;2023-01-13T09:04:49;1.23;;;0.30;;
7707;SDS011;3896;48.758;8.888;2023-01-13T09:07:14;0.30;;;0.30;;
7707;SDS011;3896;48.758;8.888;2023-01-13T09:09:40;0.67;;;0.37;;
7707;SDS011;3896;48.758;8.888;2023-01-13T09:12:06;0.60;;;0.40;;
7707;SDS011;3896;48.758;8.888;2023-01-13T09:14:54;0.40;;;0.40;;
7707;SDS011;3896;48.758;8.888;2023-01-13T09:17:20;0.20;;;0.20;;
7707;SDS011;3896;48.758;8.888;2023-01-13T09:19:47;1.07;;;0.43;;
7707;SDS011;3896;48.758;8.888;2023-01-13T09:22:14;0.40;;;0.30;;
7707;SDS011;3896;48.758;8.888;2023-01-13T09:24:41;0.30;;;0.30;;
7707;SDS011;3896;48.758;8.888;2023-01-13T09:27:11;0.73;;;0.40;;
7707;SDS011;3896;48.758;8.888;2023-01-13T09:29:38;1.50;;;0.90;;
7707;SDS011;3896;48.758;8.888;2023-01-13T09:32:04;0.50;;;0.50;;
7707;SDS011;3896;48.758;8.888;2023-01-13T09:34:31;0.50;;;0.50;;
7707;SDS011;3896;48.758;8.888;2023-01-13T09:37:15;0.53;;;0.40;;
7707;SDS011;3896;48.758;8.888;2023-01-13T09:39:41;1.40;;;0.47;;
7707;SDS011;3896;48.758;8.888;2023-01-13T09:45:18;0.63;;;0.50;;
7707;SDS011;3896;48.758;8.888;2023-01-13T09:50:42;0.30;;;0.30;;
7707;SDS011;3896;48.758;8.888;2023-01-13T09:53:33;0.20;;;0.20;;
7707;SDS011;3896;48.758;8.888;2023-01-13T09:56:00;0.37;;;0.37;;
7707;SDS011;3896;48.758;8.888;2023-01-13T09:58:26;0.80;;;0.40;;
7707;SDS011;3896;48.758;8.888;2023-01-13T10:03:27;0.60;;;0.43;;
7707;SDS011;3896;48.758;8.888;2023-01-13T10:05:56;0.53;;;0.40;;
7707;SDS011;3896;48.758;8.888;2023-01-13T10:08:37;0.30;;;0.30;;
7707;SDS011;3896;48.758;8.888;2023-01-13T10:11:09;1.23;;;0.33;;
7707;SDS011;3896;48.758;8.888;2023-01-13T10:14:02;0.30;;;0.30;;
7707;SDS011;3896;48.758;8.888;2023-01-13T10:16:40;0.80;;;0.67;;
7707;SDS011;3896;48.758;8.888;2023-01-13T10:19:18;0.90;;;0.43;;
7707;SDS011;3896;48.758;8.888;2023-01-13T10:21:54;0.67;;;0.40;;
7707;SDS011;3896;48.758;8.888;2023-01-13T10:27:32;0.60;;;0.60;;
7707;SDS011;3896;48.758;8.888;2023-01-13T10:30:09;2.20;;;1.17;;
7707;SDS011;3896;48.758;8.888;2023-01-13T10:33:00;1.20;;;0.87;;
7707;SDS011;3896;48.758;8.888;2023-01-13T10:35:50;0.97;;;0.50;;
7707;SDS011;3896;48.758;8.888;2023-01-13T10:38:20;0.53;;;0.50;;
7707;SDS011;3896;48.758;8.888;2023-01-13T10:40:48;2.77;;;1.37;;
7707;SDS011;3896;48.758;8.888;2023-01-13T10:43:17;1.10;;;0.50;;
7707;SDS011;3896;48.758;8.888;2023-01-13T10:45:59;1.23;;;0.40;;
7707;SDS011;3896;48.758;8.888;2023-01-13T10:48:36;0.30;;;0.30;;
7707;SDS011;3896;48.758;8.888;2023-01-13T10:51:15;0.50;;;0.30;;
7707;SDS011;3896;48.758;8.888;2023-01-13T10:53:52;1.77;;;0.47;;
7707;SDS011;3896;48.758;8.888;2023-01-13T10:56:24;0.40;;;0.40;;
7707;SDS011;3896;48.758;8.888;2023-01-13T11:01:38;0.30;;;0.30;;
7707;SDS011;3896;48.758;8.888;2023-01-13T11:04:30;1.30;;;0.40;;
7707;SDS011;3896;48.758;8.888;2023-01-13T11:07:04;0.73;;;0.40;;
7707;SDS011;3896;48.758;8.888;2023-01-13T11:09:45;0.53;;;0.43;;
7707;SDS011;3896;48.758;8.888;2023-01-13T11:14:56;0.60;;;0.60;;
7707;SDS011;3896;48.758;8.888;2023-01-13T11:17:37;2.87;;;0.90;;
7707;SDS011;3896;48.758;8.888;2023-01-13T11:20:15;1.03;;;0.70;;
7707;SDS011;3896;48.758;8.888;2023-01-13T11:22:51;0.70;;;0.70;;
7707;SDS011;3896;48.758;8.888;2023-01-13T11:31:03;0.97;;;0.60;;
7707;SDS011;3896;48.758;8.888;2023-01-13T11:36:17;0.50;;;0.50;;
7707;SDS011;3896;48.758;8.888;2023-01-13T11:38:53;0.73;;;0.50;;
7707;SDS011;3896;48.758;8.888;2023-01-13T11:46:40;1.20;;;0.80;;
7707;SDS011;3896;48.758;8.888;2023-01-13T11:49:07;1.43;;;0.87;;
7707;SDS011;3896;48.758;8.888;2023-01-13T11:51:47;0.70;;;0.60;;
7707;SDS011;3896;48.758;8.888;2023-01-13T11:57:08;0.87;;;0.53;;
7707;SDS011;3896;48.758;8.888;2023-01-13T12:08:17;1.20;;;0.70;;
7707;SDS011;3896;48.758;8.888;2023-01-13T12:11:10;6.97;;;1.60;;
7707;SDS011;3896;48.758;8.888;2023-01-13T12:14:05;3.90;;;1.13;;
7707;SDS011;3896;48.758;8.888;2023-01-13T12:16:43;1.20;;;0.70;;
7707;SDS011;3896;48.758;8.888;2023-01-13T12:22:00;2.53;;;1.20;;
7707;SDS011;3896;48.758;8.888;2023-01-13T12:24:50;1.67;;;0.63;;
7707;SDS011;3896;48.758;8.888;2023-01-13T12:30:21;2.63;;;0.70;;
7707;SDS011;3896;48.758;8.888;2023-01-13T12:33:20;4.57;;;1.73;;
7707;SDS011;3896;48.758;8.888;2023-01-13T12:42:57;3.07;;;1.30;;
7707;SDS011;3896;48.758;8.888;2023-01-13T12:47:41;5.43;;;1.77;;
7707;SDS011;3896;48.758;8.888;2023-01-13T12:52:55;3.40;;;1.40;;
7707;SDS011;3896;48.758;8.888;2023-01-13T12:55:34;4.57;;;1.00;;
7707;SDS011;3896;48.758;8.888;2023-01-13T13:05:39;3.80;;;1.37;;
7707;SDS011;3896;48.758;8.888;2023-01-13T13:13:58;4.93;;;1.40;;
7707;SDS011;3896;48.758;8.888;2023-01-13T13:16:44;3.20;;;1.10;;
7707;SDS011;3896;48.758;8.888;2023-01-13T13:24:38;1.17;;;0.97;;
7707;SDS011;3896;48.758;8.888;2023-01-13T13:27:18;7.03;;;2.13;;
7707;SDS011;3896;48.758;8.888;2023-01-13T13:29:51;1.80;;;0.90;;
7707;SDS011;3896;48.758;8.888;2023-01-13T13:35:27;3.17;;;1.50;;
7707;SDS011;3896;48.758;8.888;2023-01-13T13:38:10;4.00;;;1.47;;
7707;SDS011;3896;48.758;8.888;2023-01-13T13:40:57;1.10;;;0.70;;
7707;SDS011;3896;48.758;8.888;2023-01-13T13:43:43;2.33;;;0.93;;
7707;SDS011;3896;48.758;8.888;2023-01-13T13:46:32;1.03;;;0.40;;
7707;SDS011;3896;48.758;8.888;2023-01-13T13:49:12;3.23;;;1.00;;
7707;SDS011;3896;48.758;8.888;2023-01-13T13:51:40;3.73;;;0.90;;
7707;SDS011;3896;48.758;8.888;2023-01-13T13:54:22;1.07;;;0.53;;
7707;SDS011;3896;48.758;8.888;2023-01-13T13:56:48;3.60;;;0.93;;
7707;SDS011;3896;48.758;8.888;2023-01-13T13:59:21;1.87;;;1.00;;
7707;SDS011;3896;48.758;8.888;2023-01-13T14:01:50;3.50;;;0.93;;
7707;SDS011;3896;48.758;8.888;2023-01-13T14:04:24;0.80;;;0.63;;
7707;SDS011;3896;48.758;8.888;2023-01-13T14:06:55;1.33;;;0.50;;
7707;SDS011;3896;48.758;8.888;2023-01-13T14:09:40;1.00;;;0.83;;
7707;SDS011;3896;48.758;8.888;2023-01-13T14:12:17;0.97;;;0.70;;
7707;SDS011;3896;48.758;8.888;2023-01-13T14:14:47;3.23;;;0.83;;
7707;SDS011;3896;48.758;8.888;2023-01-13T14:17:26;1.03;;;0.57;;
7707;SDS011;3896;48.758;8.888;2023-01-13T14:22:22;11.93;;;6.37;;
7707;SDS011;3896;48.758;8.888;2023-01-13T14:24:48;3.33;;;1.97;;
7707;SDS011;3896;48.758;8.888;2023-01-13T14:27:19;3.70;;;1.43;;
7707;SDS011;3896;48.758;8.888;2023-01-13T14:29:46;1.10;;;1.10;;
7707;SDS011;3896;48.758;8.888;2023-01-13T14:32:13;1.03;;;0.93;;
7707;SDS011;3896;48.758;8.888;2023-01-13T14:34:44;4.57;;;3.93;;
7707;SDS011;3896;48.758;8.888;2023-01-13T14:40:00;2.57;;;2.40;;
7707;SDS011;3896;48.758;8.888;2023-01-13T14:42:26;1.83;;;1.73;;
7707;SDS011;3896;48.758;8.888;2023-01-13T14:44:53;1.57;;;1.57;;
7707;SDS011;3896;48.758;8.888;2023-01-13T14:47:23;1.73;;;1.60;;
7707;SDS011;3896;48.758;8.888;2023-01-13T14:52:37;2.87;;;2.00;;
7707;SDS011;3896;48.758;8.888;2023-01-13T14:55:19;1.97;;;0.70;;
7707;SDS011;3896;48.758;8.888;2023-01-13T14:57:51;0.73;;;0.73;;
7707;SDS011;3896;48.758;8.888;2023-01-13T15:00:21;2.10;;;0.90;;
7707;SDS011;3896;48.758;8.888;2023-01-13T15:07:49;3.57;;;0.83;;
7707;SDS011;3896;48.758;8.888;2023-01-13T15:10:18;1.67;;;1.20;;
7707;SDS011;3896;48.758;8.888;2023-01-13T15:12:48;2.23;;;1.67;;
7707;SDS011;3896;48.758;8.888;2023-01-13T15:15:22;1.63;;;1.53;;
7707;SDS011;3896;48.758;8.888;2023-01-13T15:17:51;3.17;;;1.80;;
7707;SDS011;3896;48.758;8.888;2023-01-13T15:20:18;2.07;;;1.77;;
7707;SDS011;3896;48.758;8.888;2023-01-13T15:22:48;3.13;;;2.17;;
7707;SDS011;3896;48.758;8.888;2023-01-13T15:25:15;1.80;;;1.10;;
7707;SDS011;3896;48.758;8.888;2023-01-13T15:27:45;1.83;;;1.33;;
7707;SDS011;3896;48.758;8.888;2023-01-13T15:30:19;2.03;;;1.30;;
7707;SDS011;3896;48.758;8.888;2023-01-13T15:32:46;3.03;;;2.17;;
7707;SDS011;3896;48.758;8.888;2023-01-13T15:35:13;3.77;;;1.70;;
7707;SDS011;3896;48.758;8.888;2023-01-13T15:37:40;4.53;;;2.87;;
7707;SDS011;3896;48.758;8.888;2023-01-13T15:40:13;3.00;;;2.03;;
7707;SDS011;3896;48.758;8.888;2023-01-13T15:42:44;2.63;;;1.87;;
7707;SDS011;3896;48.758;8.888;2023-01-13T15:45:29;4.00;;;2.77;;
7707;SDS011;3896;48.758;8.888;2023-01-13T15:48:14;3.80;;;1.87;;
7707;SDS011;3896;48.758;8.888;2023-01-13T15:50:40;3.17;;;2.40;;
7707;SDS011;3896;48.758;8.888;2023-01-13T15:53:05;5.27;;;2.30;;
7707;SDS011;3896;48.758;8.888;2023-01-13T15:55:31;5.40;;;2.90;;
7707;SDS011;3896;48.758;8.888;2023-01-13T15:58:01;9.23;;;3.83;;
7707;SDS011;3896;48.758;8.888;2023-01-13T16:00:26;5.07;;;2.20;;
7707;SDS011;3896;48.758;8.888;2023-01-13T16:02:52;4.77;;;2.73;;
7707;SDS011;3896;48.758;8.888;2023-01-13T16:05:18;5.97;;;3.43;;
7707;SDS011;3896;48.758;8.888;2023-01-13T16:07:43;4.37;;;3.13;;
7707;SDS011;3896;48.758;8.888;2023-01-13T16:10:16;3.77;;;2.57;;
7707;SDS011;3896;48.758;8.888;2023-01-13T16:12:46;4.27;;;3.53;;
7707;SDS011;3896;48.758;8.888;2023-01-13T16:15:13;2.40;;;2.00;;
7707;SDS011;3896;48.758;8.888;2023-01-13T16:17:46;4.13;;;2.40;;
7707;SDS011;3896;48.758;8.888;2023-01-13T16:20:16;3.83;;;2.13;;
7707;SDS011;3896;48.758;8.888;2023-01-13T16:22:42;3.10;;;2.00;;
7707;SDS011;3896;48.758;8.888;2023-01-13T16:25:19;5.90;;;1.60;;
7707;SDS011;3896;48.758;8.888;2023-01-13T16:27:47;5.07;;;1.43;;
7707;SDS011;3896;48.758;8.888;2023-01-13T16:30:34;2.33;;;1.43;;
7707;SDS011;3896;48.758;8.888;2023-01-13T16:32:59;3.83;;;2.50;;
7707;SDS011;3896;48.758;8.888;2023-01-13T16:35:26;7.27;;;1.87;;
7707;SDS011;3896;48.758;8.888;2023-01-13T16:37:52;3.00;;;1.70;;
7707;SDS011;3896;48.758;8.888;2023-01-13T16:42:49;3.13;;;1.53;;
7707;SDS011;3896;48.758;8.888;2023-01-13T16:45:15;9.70;;;4.93;;
7707;SDS011;3896;48.758;8.888;2023-01-13T16:47:41;16.97;;;6.47;;
7707;SDS011;3896;48.758;8.888;2023-01-13T16:50:14;8.33;;;3.53;;
7707;SDS011;3896;48.758;8.888;2023-01-13T16:52:46;12.57;;;6.17;;
7707;SDS011;3896;48.758;8.888;2023-01-13T16:55:11;6.87;;;4.40;;
7707;SDS011;3896;48.758;8.888;2023-01-13T16:57:37;12.07;;;5.30;;
7707;SDS011;3896;48.758;8.888;2023-01-13T17:00:02;8.47;;;4.10;;
7707;SDS011;3896;48.758;8.888;2023-01-13T17:02:29;7.03;;;3.60;;
7707;SDS011;3896;48.758;8.888;2023-01-13T17:04:54;10.17;;;1.97;;
7707;SDS011;3896;48.758;8.888;2023-01-13T17:07:20;4.43;;;1.70;;
7707;SDS011;3896;48.758;8.888;2023-01-13T17:09:45;5.63;;;2.17;;
7707;SDS011;3896;48.758;8.888;2023-01-13T17:12:11;3.33;;;1.63;;
7707;SDS011;3896;48.758;8.888;2023-01-13T17:14:36;3.23;;;1.37;;
7707;SDS011;3896;48.758;8.888;2023-01-13T17:17:02;3.37;;;1.73;;
7707;SDS011;3896;48.758;8.888;2023-01-13T17:19:27;3.50;;;1.77;;
7707;SDS011;3896;48.758;8.888;2023-01-13T17:21:53;3.40;;;1.57;;
7707;SDS011;3896;48.758;8.888;2023-01-13T17:24:18;3.87;;;1.63;;
7707;SDS011;3896;48.758;8.888;2023-01-13T17:26:45;6.57;;;3.93;;
7707;SDS011;3896;48.758;8.888;2023-01-13T17:29:17;5.03;;;2.93;;
7707;SDS011;3896;48.758;8.888;2023-01-13T17:31:46;5.43;;;1.80;;
7707;SDS011;3896;48.758;8.888;2023-01-13T17:34:12;4.63;;;2.10;;
7707;SDS011;3896;48.758;8.888;2023-01-13T17:36:38;12.47;;;2.70;;
7707;SDS011;3896;48.758;8.888;2023-01-13T17:39:05;4.97;;;2.30;;
7707;SDS011;3896;48.758;8.888;2023-01-13T17:41:31;6.23;;;3.10;;
7707;SDS011;3896;48.758;8.888;2023-01-13T17:43:56;8.00;;;3.90;;
7707;SDS011;3896;48.758;8.888;2023-01-13T17:46:22;9.47;;;5.43;;
7707;SDS011;3896;48.758;8.888;2023-01-13T17:48:48;6.50;;;3.50;;
7707;SDS011;3896;48.758;8.888;2023-01-13T17:51:15;17.57;;;8.03;;
7707;SDS011;3896;48.758;8.888;2023-01-13T17:53:42;17.83;;;8.20;;
7707;SDS011;3896;48.758;8.888;2023-01-13T17:56:09;15.93;;;8.83;;